Aeroporto :
LOGIN :

Iscrizione | Disclaimer

   EN    FR    IT 

 










Sommario :    VFR   VFR Marginale   IFR   IFR Intensivo   IFR Molto Intensivo
Visibilità : 
Base nubi : 
>= 8 km
>= 3000ft
5 / 8 km
1000 / 3000 ft
1500m / 5 km
500 / 1000 ft
800 / 1500m
200 / 500 ft
< 800m
< 200 ft
Simboli :   Temporali  Nebbia  Neve Forte  Precipitazioni Forti  Vento > 20 kt
SIGMETs :   Varie  Temporali  Ghiacco  Turbolenza  Onda orograficha  Ceneri Vulcaniche







- Altitudine del aeroporto : 400 ft
- Codice IATA : BNX


LQBK - Banja Luka

ULTIMO METAR :
  • 191200Z 36008KT 9999 FEW040 20/04 Q1029 NOSIG

METARs OBSOLETI :
  • 191130Z 36003KT 9999 FEW040 20/04 Q1029 NOSIG
  • 191100Z 01005KT 9999 FEW040 19/03 Q1029 NOSIG
  • 191030Z 30003KT 9999 FEW040 19/04 Q1029 NOSIG
  • 191000Z 34003KT 9999 FEW040 19/05 Q1030 NOSIG
  • 190930Z VRB02KT 9999 FEW040 18/07 Q1030 NOSIG

TAF TAF LQBK
Valido dal 19 a 12 ore il 20 a 12 ore UTC


191100Z 1912/2012 03005KT CAVOK TX21/1913Z TN04/2004Z
Nessun NOTAM noto per questo aeroporto.



MetMap, La meteo Aeronautica in un colpo d'occhio ! - Copyright ORBIFLY Dicembre 2007 - Disclaimer

ORBIFLY MET'MAP TEAM :

Programmazione e sviluppo : Alexandra Zaïnal
Concezione e sviluppo : Baudouin d'Aumeries
Co-Programmazione e sviluppo : Marc-Olivier Méhu
Supporto tecnico e logistico : Manuel Goepfert
Aiuto per la traduzione : Arnaldo La Scala

Contatto : metmap@orbifly.com




FONTI E CREDITI :

   NOAA